UA5240 / N938SW 7700 Squawk Report (13th of November, 2019)

Aircraft CRJ2 Reg No. N938SW Age N/A
Model Regional-Jet Jet engines 2 First flight 01-03
Registered 29-01-03 Rollout 01-03 Delivered 29-01-03
Construction No. 7741 Line No. N/A Series 200LR
ADSHEX AD0506 Airline name United Express Owner SkyWest Airlines
Airfield based Chicago O`Hare~IL~N First tracked 2017-07-13 21:17:00

Flight history for N938SW

Route Flight No Date Playback
Chicago Ohare Intl (ORD) - South Bend Rgnl (SBN) OO790Y 2019-12-12 02:41:00
Cape Girardeau Regional Airport (CGI) - Chicago Ohare Intl (ORD) - Barkley Regional Airport (PAH) UA5027 2019-12-12 02:07:00
???? N/A 2019-12-11 23:14:00
Chippewa Valley Regional Airport (EAU) - Chicago Ohare Intl (ORD) UA5033 2019-12-11 21:15:00
Chicago Ohare Intl (ORD) - Chippewa Valley Regional Airport (EAU) UA5062 2019-12-11 19:34:00
Mbs Intl (MBS) - Chicago Ohare Intl (ORD) UA5044 2019-12-11 17:43:00
Chicago Ohare Intl (ORD) - Mbs Intl (MBS) UA5064 2019-12-11 15:57:00
Mc Ghee Tyson (TYS) - Minneapolis-St.Paul Intl (MSP) DL4797 2019-12-11 12:14:00
Cherry Capital Airport (TVC) - Chicago Ohare Intl (ORD) - General Mitchell Intl (MKE) UA5797 2019-12-11 14:07:00
???? N/A 2019-12-11 12:09:00
San Francisco Intl (SFO) - Bob Hope (BUR) UA5717 2019-12-11 02:15:00
Chicago Ohare Intl (ORD) - Abraham Lincoln Capital (SPI) UA5146 2019-12-11 00:31:00
Barkley Regional Airport (PAH) - Chicago Ohare Intl (ORD) UA5096 2019-12-10 22:24:00
Chicago Ohare Intl (ORD) - Aspen - Pitkin County Airport (ASE) UA5440 2019-12-10 19:38:00
Shenandoah Valley Regional (SHD) - Chicago Ohare Intl (ORD) UA5070 2019-12-10 17:28:00
???? N/A 2019-12-10 14:53:00
Plattsburgh Intl (PBG) - Washington Dulles International (IAD) UA5029 2019-12-10 13:24:00
Washington Dulles International (IAD) - Plattsburgh Intl (PBG) UA5076 2019-12-10 01:06:00
Plattsburgh Intl (PBG) - Washington Dulles International (IAD) UA5029 2019-12-10 00:13:00
Washington Dulles International (IAD) - Plattsburgh Intl (PBG) UA5115 2019-12-09 19:15:00
Time Lat Lon Altitude Heading Speed Vertical Rate
2019-11-13 01:25:58 GMT 32.119331 -110.936760 0 258 0 0
2019-11-13 01:25:51 GMT 32.119331 -110.936752 0 258 0 0
2019-11-13 01:25:41 GMT 32.119331 -110.936760 0 258 0 0
2019-11-13 01:25:29 GMT 32.119343 -110.936729 0 258 3 0
2019-11-13 01:25:20 GMT 32.119389 -110.936493 0 258 7 0
2019-11-13 01:25:05 GMT 32.119404 -110.935989 0 315 7 0
2019-11-13 01:24:51 GMT 32.119148 -110.935684 0 317 2 0
2019-11-13 01:24:26 GMT 32.119125 -110.935654 0 320 0 0
2019-11-13 01:24:17 GMT 32.118938 -110.935471 0 337 8 0
2019-11-13 01:24:04 GMT 32.118496 -110.935509 0 45 9 0
2019-11-13 01:23:55 GMT 32.118210 -110.935837 0 47 11 0
2019-11-13 01:23:44 GMT 32.117832 -110.936272 0 47 14 0
2019-11-13 01:23:34 GMT 32.117477 -110.936745 0 81 10 0
2019-11-13 01:23:24 GMT 32.117531 -110.937241 0 126 7 0
2019-11-13 01:23:13 GMT 32.117729 -110.937622 0 92 11 0
2019-11-13 01:23:02 GMT 32.117432 -110.938171 0 16 12 0
2019-11-13 01:22:51 GMT 32.116936 -110.937927 0 317 16 0
2019-11-13 01:22:41 GMT 32.116272 -110.937141 0 317 22 0
2019-11-13 01:22:30 GMT 32.115520 -110.936249 0 317 24 0
2019-11-13 01:22:20 GMT 32.114643 -110.935219 0 317 25 0
2019-11-13 01:22:10 GMT 32.113911 -110.934364 0 317 23 0
2019-11-13 01:22:00 GMT 32.113106 -110.933418 0 317 23 0
2019-11-13 01:21:48 GMT 32.112350 -110.932526 0 317 23 0
2019-11-13 01:21:38 GMT 32.111607 -110.931664 0 317 21 0
2019-11-13 01:21:27 GMT 32.110886 -110.930801 0 317 20 0
2019-11-13 01:21:17 GMT 32.110256 -110.930069 0 317 20 0
2019-11-13 01:21:07 GMT 32.109615 -110.929321 0 317 18 0
2019-11-13 01:20:56 GMT 32.109070 -110.928673 0 317 16 0
2019-11-13 01:20:46 GMT 32.108585 -110.928101 0 317 13 0
2019-11-13 01:20:35 GMT 32.108173 -110.927620 0 315 11 0
2019-11-13 01:20:25 GMT 32.107845 -110.927261 0 320 9 0
2019-11-13 01:20:10 GMT 32.107452 -110.927177 0 39 0 0
2019-11-13 01:19:42 GMT 32.107414 -110.927200 0 42 0 0
2019-11-13 01:19:11 GMT 32.107418 -110.927200 0 42 0 0
2019-11-13 01:19:00 GMT 32.107414 -110.927200 0 42 0 0
2019-11-13 01:18:50 GMT 32.107418 -110.927200 0 42 0 0
2019-11-13 01:18:38 GMT 32.107304 -110.927322 0 45 7 0
2019-11-13 01:18:29 GMT 32.107052 -110.927620 0 45 9 0
2019-11-13 01:18:17 GMT 32.106754 -110.927971 0 50 8 0
2019-11-13 01:18:08 GMT 32.106705 -110.928352 0 129 9 0
2019-11-13 01:17:56 GMT 32.107079 -110.928787 0 135 15 0
2019-11-13 01:17:46 GMT 32.107651 -110.929474 0 132 24 0
2019-11-13 01:17:36 GMT 32.108768 -110.930771 0 132 39 0
2019-11-13 01:17:24 GMT 32.110336 -110.932610 0 132 54 0
2019-11-13 01:17:15 GMT 32.112431 -110.935066 2,475 132 74 0
2019-11-13 01:17:03 GMT 32.115597 -110.938820 2,475 135 109 64
2019-11-13 01:16:52 GMT 32.120087 -110.944115 2,475 135 135 0
2019-11-13 01:16:46 GMT 32.123047 -110.947563 2,525 134 142 -704
2019-11-13 01:16:43 GMT 32.124207 -110.948952 2,550 134 142 -704
2019-11-13 01:16:38 GMT 32.126450 -110.951584 2,625 134 142 -576
2019-11-13 01:16:33 GMT 32.129150 -110.954773 2,675 134 142 -768
2019-11-13 01:16:28 GMT 32.131424 -110.957489 2,725 134 142 -768
2019-11-13 01:16:22 GMT 32.133892 -110.960457 2,800 135 140 -960
2019-11-13 01:16:16 GMT 32.136360 -110.963257 2,875 136 140 -768
2019-11-13 01:16:12 GMT 32.138966 -110.966232 2,950 135 140 -896
2019-11-13 01:16:07 GMT 32.141155 -110.968811 3,025 134 140 -896
2019-11-13 01:16:01 GMT 32.143707 -110.971802 3,100 135 140 -768
2019-11-13 01:15:56 GMT 32.145767 -110.974327 3,150 134 137 -768
2019-11-13 01:15:51 GMT 32.148418 -110.977440 3,200 135 134 -640
2019-11-13 01:15:46 GMT 32.150620 -110.979935 3,250 135 132 -640
2019-11-13 01:15:38 GMT 32.153679 -110.983551 3,350 134 132 -832
2019-11-13 01:15:35 GMT 32.155197 -110.985367 3,375 134 133 -768
2019-11-13 01:15:29 GMT 32.157776 -110.988426 3,450 135 133 -704
2019-11-13 01:15:25 GMT 32.159775 -110.990700 3,500 135 134 -768
2019-11-13 01:15:19 GMT 32.162430 -110.993828 3,575 133 134 -704
2019-11-13 01:15:14 GMT 32.164307 -110.996140 3,625 134 135 -896
2019-11-13 01:15:08 GMT 32.166870 -110.999161 3,700 135 135 -704
2019-11-13 01:15:04 GMT 32.169273 -111.001938 3,775 135 136 -576
2019-11-13 01:14:57 GMT 32.172089 -111.005203 3,825 135 134 -832
2019-11-13 01:14:52 GMT 32.174023 -111.007370 3,875 135 132 -768
2019-11-13 01:14:46 GMT 32.176674 -111.010567 3,950 134 133 -704
2019-11-13 01:14:43 GMT 32.178394 -111.012695 4,000 134 135 -768
2019-11-13 01:14:37 GMT 32.181107 -111.015915 4,100 135 136 -960
2019-11-13 01:14:31 GMT 32.183212 -111.018272 4,150 136 137 -896
2019-11-13 01:14:25 GMT 32.186172 -111.021774 4,225 133 141 -512
2019-11-13 01:14:22 GMT 32.187744 -111.023766 4,275 132 143 -832
2019-11-13 01:14:15 GMT 32.190811 -111.027504 4,350 135 144 -768
2019-11-13 01:14:11 GMT 32.192596 -111.029648 4,400 135 146 -704
2019-11-13 01:14:04 GMT 32.195984 -111.033600 4,475 135 147 -768
2019-11-13 01:14:01 GMT 32.197903 -111.035789 4,525 135 149 -768
2019-11-13 01:13:55 GMT 32.200882 -111.039368 4,600 134 151 -448
2019-11-13 01:13:50 GMT 32.204956 -111.044205 4,650 134 157 -640
2019-11-13 01:13:43 GMT 32.206055 -111.045517 4,675 134 153 -512
2019-11-13 01:13:39 GMT 32.208378 -111.048294 4,725 134 154 -640
2019-11-13 01:13:33 GMT 32.211308 -111.051765 4,775 134 154 -640
2019-11-13 01:13:28 GMT 32.216995 -111.058540 4,875 134 157 -640
2019-11-13 01:13:23 GMT 32.216995 -111.058540 4,875 134 159 -576
2019-11-13 01:13:18 GMT 32.219101 -111.061012 4,925 135 161 -640
2019-11-13 01:13:12 GMT 32.222202 -111.064713 4,975 134 164 -704
2019-11-13 01:13:08 GMT 32.224762 -111.067741 5,050 134 164 -960
2019-11-13 01:13:02 GMT 32.227844 -111.071396 5,150 134 166 -1088
2019-11-13 01:12:57 GMT 32.230453 -111.074577 5,225 134 169 -1216
2019-11-13 01:12:51 GMT 32.233749 -111.078537 5,350 134 170 -1408
2019-11-13 01:12:45 GMT 32.237473 -111.083046 5,450 134 172 -1280
2019-11-13 01:12:41 GMT 32.239704 -111.085732 5,575 134 173 -1216
2019-11-13 01:12:36 GMT 32.243336 -111.090050 5,700 134 171 -1088
2019-11-13 01:12:30 GMT 32.245514 -111.092651 5,750 134 171 -960
2019-11-13 01:12:24 GMT 32.249405 -111.097267 5,850 134 170 -64
2019-11-13 01:12:20 GMT 32.251419 -111.099686 5,850 134 170 -64
2019-11-13 01:12:13 GMT 32.255302 -111.104233 5,850 134 171 -64
2019-11-13 01:12:08 GMT 32.257370 -111.106712 5,850 134 174 -64
2019-11-13 01:12:05 GMT 32.259888 -111.109680 5,850 134 176 0
2019-11-13 01:11:58 GMT 32.263824 -111.114349 5,850 134 178 0
2019-11-13 01:11:54 GMT 32.265869 -111.116844 5,850 134 181 0
2019-11-13 01:11:47 GMT 32.269775 -111.121437 5,850 135 186 0
2019-11-13 01:11:44 GMT 32.272247 -111.124344 5,850 135 188 0
2019-11-13 01:11:41 GMT 32.274216 -111.126656 5,850 135 190 0
2019-11-13 01:11:37 GMT 32.276390 -111.129234 5,850 134 193 -64
2019-11-13 01:11:32 GMT 32.279022 -111.132309 5,850 135 195 -64
2019-11-13 01:11:26 GMT 32.282814 -111.136795 5,875 135 198 -128
2019-11-13 01:11:23 GMT 32.285660 -111.140114 5,875 135 201 64
2019-11-13 01:11:15 GMT 32.290329 -111.145607 5,850 135 205 192
2019-11-13 01:11:12 GMT 32.292587 -111.148232 5,850 135 207 0
2019-11-13 01:11:06 GMT 32.297150 -111.153625 5,850 135 210 0
2019-11-13 01:11:02 GMT 32.299759 -111.156700 5,850 135 210 0
2019-11-13 01:10:54 GMT 32.304554 -111.162300 5,850 134 211 -64
2019-11-13 01:10:50 GMT 32.307301 -111.165611 5,875 134 212 -64
2019-11-13 01:10:45 GMT 32.311768 -111.170876 5,875 134 212 0
2019-11-13 01:10:41 GMT 32.314564 -111.174187 5,875 134 212 0
2019-11-13 01:10:33 GMT 32.319172 -111.179626 5,875 134 214 0
2019-11-13 01:10:30 GMT 32.321686 -111.182594 5,875 134 213 0
2019-11-13 01:10:24 GMT 32.326447 -111.188339 5,875 134 212 0
2019-11-13 01:10:20 GMT 32.328964 -111.191307 5,875 134 212 0
2019-11-13 01:10:12 GMT 32.333881 -111.197113 5,875 135 211 -64
2019-11-13 01:10:09 GMT 32.336395 -111.200027 5,875 135 210 -64
2019-11-13 01:10:03 GMT 32.340958 -111.205406 5,875 135 210 64
2019-11-13 01:09:58 GMT 32.343338 -111.208229 5,875 135 208 0
2019-11-13 01:09:51 GMT 32.348419 -111.214218 5,875 134 207 0
2019-11-13 01:09:48 GMT 32.350708 -111.216965 5,875 135 207 -64
2019-11-13 01:09:41 GMT 32.355286 -111.222343 5,875 134 206 128
2019-11-13 01:09:37 GMT 32.357849 -111.225418 5,850 135 206 0
2019-11-13 01:09:31 GMT 32.362556 -111.230911 5,850 134 207 0
2019-11-13 01:09:27 GMT 32.364979 -111.233826 5,850 134 207 0
2019-11-13 01:09:20 GMT 32.369724 -111.239487 5,850 134 208 0
2019-11-13 01:09:17 GMT 32.372055 -111.242233 5,850 135 209 0
2019-11-13 01:09:10 GMT 32.377167 -111.248329 5,875 134 209 0
2019-11-13 01:09:06 GMT 32.379227 -111.250748 5,875 134 208 0
2019-11-13 01:08:56 GMT 32.386391 -111.259331 5,875 134 210 64
2019-11-13 01:08:48 GMT 32.391815 -111.265793 5,875 134 211 -64
2019-11-13 01:08:45 GMT 32.398495 -111.273735 5,875 134 210 0
2019-11-13 01:08:38 GMT 32.398495 -111.273735 5,875 134 211 0
2019-11-13 01:08:35 GMT 32.401016 -111.276779 5,875 134 211 64
2019-11-13 01:08:26 GMT 32.406830 -111.283707 5,875 134 212 -64
2019-11-13 01:08:23 GMT 32.408203 -111.285355 5,875 134 212 0
2019-11-13 01:08:17 GMT 32.413010 -111.291122 5,875 134 211 0
2019-11-13 01:08:14 GMT 32.415161 -111.293694 5,875 134 211 0
2019-11-13 01:08:06 GMT 32.420933 -111.300636 5,875 134 211 0
2019-11-13 01:08:03 GMT 32.422703 -111.302773 5,875 134 211 0
2019-11-13 01:07:53 GMT 32.429871 -111.311348 5,875 134 211 0
2019-11-13 01:07:50 GMT 32.431499 -111.313309 5,850 134 211 64
2019-11-13 01:07:44 GMT 32.435364 -111.317963 5,850 134 211 0
2019-11-13 01:07:40 GMT 32.438671 -111.321938 5,850 134 212 0
2019-11-13 01:07:35 GMT 32.442116 -111.326088 5,850 133 212 0
2019-11-13 01:07:32 GMT 32.444256 -111.328781 5,850 133 212 0
2019-11-13 01:07:28 GMT 32.446106 -111.331055 5,850 132 212 0
2019-11-13 01:07:24 GMT 32.449097 -111.334892 5,850 131 212 0
2019-11-13 01:07:19 GMT 32.452789 -111.339897 5,850 130 212 -64
2019-11-13 01:07:14 GMT 32.456173 -111.344643 5,875 128 213 0
2019-11-13 01:07:10 GMT 32.458557 -111.348190 5,875 127 213 0
2019-11-13 01:07:06 GMT 32.460037 -111.350525 5,875 126 213 -64
2019-11-13 01:07:03 GMT 32.462177 -111.353889 5,875 122 211 0
2019-11-13 01:07:00 GMT 32.463902 -111.356750 5,875 124 213 0
2019-11-13 01:06:56 GMT 32.466385 -111.361099 5,875 123 212 0
2019-11-13 01:06:53 GMT 32.468231 -111.364487 5,875 122 211 0
2019-11-13 01:06:50 GMT 32.469582 -111.367065 5,875 120 210 0
2019-11-13 01:06:47 GMT 32.470882 -111.369644 5,875 120 209 0
2019-11-13 01:06:41 GMT 32.473755 -111.375717 5,875 117 208 0
2019-11-13 01:06:37 GMT 32.475910 -111.380684 5,875 117 207 0
2019-11-13 01:06:32 GMT 32.477783 -111.385490 5,875 113 205 64
2019-11-13 01:06:29 GMT 32.478985 -111.388702 5,875 113 204 0
2019-11-13 01:06:25 GMT 32.480148 -111.392006 5,875 111 203 0
2019-11-13 01:06:20 GMT 32.481686 -111.396996 5,875 108 201 0
2019-11-13 01:06:16 GMT 32.483139 -111.402359 5,850 104 201 64
2019-11-13 01:06:11 GMT 32.484154 -111.407593 5,850 95 200 64
2019-11-13 01:06:08 GMT 32.484383 -111.410896 5,850 84 200 0
2019-11-13 01:06:04 GMT 32.484283 -111.413620 5,850 62 200 0
2019-11-13 01:05:57 GMT 32.482151 -111.421883 5,850 59 201 -64
2019-11-13 01:05:53 GMT 32.480240 -111.425415 5,850 48 200 -64
2019-11-13 01:05:47 GMT 32.475864 -111.430794 5,850 42 200 -64
2019-11-13 01:05:42 GMT 32.472607 -111.434441 5,850 42 201 0
2019-11-13 01:05:39 GMT 32.470791 -111.436340 5,850 42 202 64
2019-11-13 01:05:36 GMT 32.468674 -111.438721 5,850 42 202 64
2019-11-13 01:05:31 GMT 32.464741 -111.442955 5,850 42 203 0
2019-11-13 01:05:26 GMT 32.461201 -111.446716 5,850 42 203 0
2019-11-13 01:05:21 GMT 32.455986 -111.452209 5,875 349 208 -128
2019-11-13 01:05:18 GMT 32.455986 -111.452209 5,875 41 204 -64
2019-11-13 01:05:12 GMT 32.451233 -111.457176 5,875 40 204 0
2019-11-13 01:05:05 GMT 32.446289 -111.462067 5,875 39 203 0
2019-11-13 01:04:57 GMT 32.440674 -111.467064 5,875 31 202 128
2019-11-13 01:04:53 GMT 32.438110 -111.468910 5,875 24 203 64
2019-11-13 01:04:49 GMT 32.433609 -111.471024 5,875 16 204 128
2019-11-13 01:04:44 GMT 32.429173 -111.471771 5,875 356 207 -64
2019-11-13 01:04:36 GMT 32.421112 -111.470360 5,875 342 209 -64
2019-11-13 01:04:32 GMT 32.419025 -111.469528 5,875 340 208 64
2019-11-13 01:04:22 GMT 32.409027 -111.465034 5,875 340 207 0
2019-11-13 01:04:15 GMT 32.402573 -111.462120 5,850 339 206 64
2019-11-13 01:04:11 GMT 32.400238 -111.461021 5,850 339 205 0
2019-11-13 01:04:02 GMT 32.390488 -111.456406 5,850 338 205 0
2019-11-13 01:03:52 GMT 32.383179 -111.452881 5,850 338 205 0
2019-11-13 01:03:48 GMT 32.379642 -111.451195 5,875 338 205 0
2019-11-13 01:03:40 GMT 32.371727 -111.447388 5,850 339 205 0
2019-11-13 01:03:30 GMT 32.363346 -111.443466 5,875 339 206 0
2019-11-13 01:03:18 GMT 32.352173 -111.438171 5,875 338 208 -64
2019-11-13 01:03:11 GMT 32.346085 -111.435257 5,875 338 208 0
2019-11-13 01:03:08 GMT 32.343842 -111.434158 5,875 338 208 0
2019-11-13 01:03:01 GMT 32.336563 -111.430649 5,850 338 208 0
2019-11-13 01:02:58 GMT 32.333694 -111.429283 5,850 338 208 0
2019-11-13 01:02:47 GMT 32.325176 -111.425079 5,875 338 209 0
2019-11-13 01:02:38 GMT 32.315678 -111.420372 5,875 337 209 -64
2019-11-13 01:02:26 GMT 32.305939 -111.415428 5,875 337 209 0
2019-11-13 01:02:17 GMT 32.297104 -111.410652 5,875 334 210 128
2019-11-13 01:02:05 GMT 32.288307 -111.403946 5,875 320 213 -64
2019-11-13 01:01:56 GMT 32.282043 -111.394943 5,875 307 216 128
2019-11-13 01:01:47 GMT 32.276367 -111.386093 5,850 307 215 -64
2019-11-13 01:01:44 GMT 32.275505 -111.384666 5,850 307 215 -64
2019-11-13 01:01:39 GMT 32.271641 -111.378609 5,875 307 215 -64
2019-11-13 01:01:36 GMT 32.270370 -111.376648 5,875 307 215 0
2019-11-13 01:01:26 GMT 32.263824 -111.366264 5,875 307 215 0
2019-11-13 01:01:14 GMT 32.256886 -111.355293 5,875 307 214 0
2019-11-13 01:01:05 GMT 32.250504 -111.345284 5,850 308 214 0
2019-11-13 01:00:53 GMT 32.244267 -111.335503 5,850 308 214 0
2019-11-13 01:00:44 GMT 32.239006 -111.327263 5,875 307 213 0
2019-11-13 01:00:32 GMT 32.231598 -111.315620 5,875 307 213 0
2019-11-13 01:00:21 GMT 32.225418 -111.305893 5,850 307 213 0
2019-11-13 01:00:10 GMT 32.219147 -111.296005 5,875 307 214 0
2019-11-13 01:00:00 GMT 32.213032 -111.286346 5,875 307 213 -64
2019-11-13 00:59:48 GMT 32.206795 -111.276428 5,875 307 211 64
2019-11-13 00:59:39 GMT 32.200603 -111.266670 5,850 307 208 64
2019-11-13 00:59:30 GMT 32.195618 -111.258713 5,850 307 208 -64
2019-11-13 00:59:27 GMT 32.194408 -111.256805 5,850 307 208 -64
2019-11-13 00:59:18 GMT 32.188614 -111.247505 5,850 307 212 0
2019-11-13 00:59:09 GMT 32.183350 -111.239098 5,850 307 213 0
2019-11-13 00:59:06 GMT 32.182213 -111.237358 5,850 307 213 0
2019-11-13 00:58:57 GMT 32.176208 -111.227951 5,875 308 213 0
2019-11-13 00:58:48 GMT 32.170715 -111.219376 5,875 308 214 0
2019-11-13 00:58:39 GMT 32.165829 -111.211906 5,875 308 214 64
2019-11-13 00:58:36 GMT 32.163437 -111.208282 5,875 308 214 0
2019-11-13 00:58:31 GMT 32.160614 -111.203896 5,875 308 214 0
2019-11-13 00:58:25 GMT 32.157169 -111.198685 5,875 308 215 0
2019-11-13 00:58:19 GMT 32.153915 -111.193779 5,875 308 214 0
2019-11-13 00:58:15 GMT 32.150558 -111.188705 5,875 309 215 64
2019-11-13 00:58:06 GMT 32.145081 -111.180489 5,850 309 215 0
2019-11-13 00:57:54 GMT 32.137894 -111.169777 5,875 309 215 0
2019-11-13 00:57:42 GMT 32.130913 -111.159279 5,875 309 215 64
2019-11-13 00:57:33 GMT 32.124767 -111.150024 5,875 308 216 -64
2019-11-13 00:57:21 GMT 32.118252 -111.140160 5,875 308 216 0
2019-11-13 00:57:12 GMT 32.111755 -111.130333 5,875 308 216 -64
2019-11-13 00:57:06 GMT 32.108414 -111.125336 5,875 308 216 64
2019-11-13 00:57:00 GMT 32.105263 -111.120544 5,850 309 217 64
2019-11-13 00:56:57 GMT 32.102379 -111.116280 5,850 309 217 0
2019-11-13 00:56:51 GMT 32.098793 -111.110901 5,850 309 217 0
2019-11-13 00:56:46 GMT 32.095905 -111.106583 5,850 309 217 64
2019-11-13 00:56:39 GMT 32.092209 -111.101112 5,850 309 217 -64
2019-11-13 00:56:36 GMT 32.089249 -111.096718 5,850 309 218 -192
2019-11-13 00:56:30 GMT 32.085663 -111.091286 5,875 309 217 -128
2019-11-13 00:56:24 GMT 32.082405 -111.086464 5,875 309 217 0
2019-11-13 00:56:19 GMT 32.079208 -111.081665 5,875 309 217 0
2019-11-13 00:56:15 GMT 32.076370 -111.077438 5,875 309 216 192
2019-11-13 00:56:09 GMT 32.072536 -111.071777 5,875 309 216 64
2019-11-13 00:55:58 GMT 32.066113 -111.062134 5,850 309 215 0
2019-11-13 00:55:48 GMT 32.059593 -111.052383 5,850 308 214 0
2019-11-13 00:55:43 GMT 32.056801 -111.048126 5,875 308 214 0
2019-11-13 00:55:37 GMT 32.053356 -111.042969 5,875 309 214 0
2019-11-13 00:55:31 GMT 32.048950 -111.036514 5,875 309 213 0
2019-11-13 00:55:27 GMT 32.046753 -111.033218 5,875 309 214 0
2019-11-13 00:55:21 GMT 32.043182 -111.027939 5,875 309 213 0
2019-11-13 00:55:16 GMT 32.040344 -111.023766 5,850 309 213 0
2019-11-13 00:55:06 GMT 32.033707 -111.013931 5,850 309 213 0
2019-11-13 00:54:54 GMT 32.026978 -111.004211 5,875 310 212 0
2019-11-13 00:54:49 GMT 32.022903 -110.998276 5,850 310 212 0
2019-11-13 00:54:45 GMT 32.020863 -110.995323 5,850 310 212 0
2019-11-13 00:54:39 GMT 32.017746 -110.990837 5,875 310 212 0
2019-11-13 00:54:34 GMT 32.014206 -110.985756 5,850 310 211 0
2019-11-13 00:54:28 GMT 32.010132 -110.979820 5,850 310 212 0
2019-11-13 00:54:24 GMT 32.007889 -110.976639 5,850 310 212 0
2019-11-13 00:54:18 GMT 32.004105 -110.971161 5,850 309 211 0
2019-11-13 00:54:13 GMT 32.001266 -110.967018 5,850 309 211 0
2019-11-13 00:54:09 GMT 31.997820 -110.961967 5,850 309 212 0
2019-11-13 00:54:03 GMT 31.994982 -110.957825 5,850 309 213 0
2019-11-13 00:53:57 GMT 31.991770 -110.953117 5,850 309 213 0
2019-11-13 00:53:52 GMT 31.988480 -110.948235 5,850 309 215 64
2019-11-13 00:53:46 GMT 31.984972 -110.942970 5,850 308 216 0
2019-11-13 00:53:42 GMT 31.981979 -110.938400 5,850 308 217 -64
2019-11-13 00:53:36 GMT 31.978361 -110.932877 5,850 307 218 -64
2019-11-13 00:53:31 GMT 31.975525 -110.928352 5,875 305 219 -64
2019-11-13 00:53:21 GMT 31.970398 -110.916924 5,875 286 221 -64
2019-11-13 00:53:16 GMT 31.969517 -110.911407 5,875 274 220 64
2019-11-13 00:53:10 GMT 31.969620 -110.905060 5,850 260 219 448
2019-11-13 00:53:05 GMT 31.970961 -110.898689 5,800 243 221 704
2019-11-13 00:53:00 GMT 31.973694 -110.892647 5,750 226 222 128
2019-11-13 00:52:55 GMT 31.977859 -110.887260 5,725 221 220 192
2019-11-13 00:52:48 GMT 31.981110 -110.884018 5,700 219 217 384
2019-11-13 00:52:43 GMT 31.985298 -110.880135 5,675 219 214 576
2019-11-13 00:52:39 GMT 31.989258 -110.876274 5,500 220 211 960
2019-11-13 00:52:33 GMT 31.994202 -110.871552 5,500 221 211 960
2019-11-13 00:52:28 GMT 31.997309 -110.868477 5,350 221 211 1024
2019-11-13 00:52:22 GMT 32.001572 -110.864243 5,350 221 212 1024
2019-11-13 00:52:17 GMT 32.006153 -110.859734 5,250 220 209 576
2019-11-13 00:52:13 GMT 32.009216 -110.856773 5,225 220 208 640
2019-11-13 00:52:06 GMT 32.013290 -110.852928 5,150 216 206 1088
2019-11-13 00:52:01 GMT 32.016861 -110.849960 5,075 210 206 832
2019-11-13 00:51:55 GMT 32.022263 -110.847107 5,000 194 204 448
2019-11-13 00:51:52 GMT 32.026451 -110.846275 4,975 182 203 768
2019-11-13 00:51:46 GMT 32.031830 -110.846611 4,900 167 205 896
2019-11-13 00:51:40 GMT 32.036831 -110.848579 4,850 154 208 320
2019-11-13 00:51:36 GMT 32.040710 -110.851280 4,825 144 207 320
2019-11-13 00:51:30 GMT 32.045563 -110.856064 4,750 136 206 832
2019-11-13 00:51:25 GMT 32.048191 -110.859222 4,700 133 207 960
2019-11-13 00:51:19 GMT 32.051697 -110.863533 4,625 134 207 896
2019-11-13 00:51:14 GMT 32.055500 -110.868141 4,550 133 205 768
2019-11-13 00:51:07 GMT 32.060532 -110.874352 4,450 133 203 576
2019-11-13 00:51:04 GMT 32.061996 -110.876053 4,400 134 200 768
2019-11-13 00:50:58 GMT 32.065414 -110.880188 4,375 134 201 896
2019-11-13 00:50:53 GMT 32.069046 -110.884514 4,300 134 204 704
2019-11-13 00:50:48 GMT 32.072617 -110.888855 4,250 134 202 576
2019-11-13 00:50:43 GMT 32.076077 -110.893028 4,200 134 199 576
2019-11-13 00:50:37 GMT 32.079472 -110.897003 4,150 134 197 576
2019-11-13 00:50:31 GMT 32.082916 -110.901039 4,125 135 190 384
2019-11-13 00:50:25 GMT 32.087666 -110.906593 4,050 135 154 1856
2019-11-13 00:50:22 GMT 32.089050 -110.908249 3,975 135 168 1536
2019-11-13 00:50:10 GMT 32.094975 -110.915054 3,700 136 159 1472
2019-11-13 00:50:06 GMT 32.097397 -110.917801 3,575 135 154 1856
2019-11-13 00:50:00 GMT 32.100281 -110.921051 3,375 136 152 2240
2019-11-13 00:49:50 GMT 32.105541 -110.927048 2,950 135 152 2816
2019-11-13 00:49:38 GMT 32.111069 -110.933517 2,575 134 154 1408
2019-11-13 00:49:28 GMT 32.116528 -110.939941 2,500 135 130 64
2019-11-13 00:49:16 GMT 32.120312 -110.944313 0 137 84
2019-11-13 00:49:08 GMT 32.122360 -110.946739 0 137 36
2019-11-13 00:48:56 GMT 32.123051 -110.947548 0 137 11
2019-11-13 00:48:46 GMT 32.123543 -110.947525 0 227 15
2019-11-13 00:48:33 GMT 32.124092 -110.946877 0 233 13
2019-11-13 00:48:25 GMT 32.124126 -110.946365 0 315 15
2019-11-13 00:48:15 GMT 32.123547 -110.945671 0 317 21
2019-11-13 00:48:03 GMT 32.122791 -110.944794 0 317 21
2019-11-13 00:47:54 GMT 32.122173 -110.944046 0 317 20
2019-11-13 00:47:43 GMT 32.121487 -110.943253 0 317 21
2019-11-13 00:47:33 GMT 32.120708 -110.942337 0 317 22
2019-11-13 00:47:21 GMT 32.119938 -110.941444 0 317 23
2019-11-13 00:47:11 GMT 32.119125 -110.940475 0 317 21
2019-11-13 00:47:00 GMT 32.118519 -110.939774 0 317 19
2019-11-13 00:46:48 GMT 32.117786 -110.938904 0 317 15
2019-11-13 00:46:39 GMT 32.117477 -110.938469 0 284 13
2019-11-13 00:46:28 GMT 32.117668 -110.937813 0 261 12
2019-11-13 00:46:19 GMT 32.117531 -110.937195 0 295 11
2019-11-13 00:46:07 GMT 32.117531 -110.936676 0 233 10
2019-11-13 00:45:58 GMT 32.117821 -110.936295 0 227 10
2019-11-13 00:45:46 GMT 32.118256 -110.935905 0 210 11
2019-11-13 00:43:38 GMT 32.118828 -110.935516 0 317 1
2019-11-13 00:43:24 GMT 32.118938 -110.935654 0 315 3
2019-11-13 00:43:03 GMT 32.119102 -110.935837 0 317 3
2019-11-13 00:42:59 GMT 32.119137 -110.935875 0 317 3
2019-11-13 00:42:45 GMT 32.119228 -110.935989 0 315 3
2019-11-13 00:42:38 GMT 32.119297 -110.936058 0 315 3
2019-11-13 00:42:26 GMT 32.119366 -110.936165 0 303 3
2019-11-13 00:42:16 GMT 32.119404 -110.936287 0 289 3
2019-11-13 00:42:06 GMT 32.119404 -110.936424 0 270 3
2019-11-13 00:41:51 GMT 32.119366 -110.936607 0 253 0
2019-11-13 00:41:43 GMT 32.119354 -110.936684 0 253 0
2019-11-13 00:41:27 GMT 32.119331 -110.936760 0 253 0
2019-11-13 00:40:38 GMT 32.119331 -110.936768 0 253 0
2019-11-13 00:40:27 GMT 32.119331 -110.936752 0 253 0
2019-11-13 00:40:07 GMT 32.119331 -110.936768 0 253 0
2019-11-13 00:39:48 GMT 32.119331 -110.936760 0 253 0
2019-11-13 00:39:28 GMT 32.119331 -110.936768 0 253 0
2019-11-13 00:38:43 GMT 32.119331 -110.936760 0 253 0
2019-11-13 00:38:11 GMT 32.119331 -110.936768 0 253 0
2019-11-13 00:38:01 GMT 32.119331 -110.936775 0 253 0
2019-11-13 00:37:52 GMT 32.119331 -110.936768 0 253 0
2019-11-13 00:37:36 GMT 32.119331 -110.936760 0 253 0
2019-11-13 00:37:32 GMT 32.119331 -110.936768 0 253 0
2019-11-13 00:37:16 GMT 32.119331 -110.936760 0 253 0
2019-11-13 00:37:07 GMT 32.119331 -110.936768 0 253 0
2019-11-13 00:36:56 GMT 32.119331 -110.936760 0 253 0
2019-11-13 00:36:47 GMT 32.119331 -110.936768 0 253 0
2019-11-13 00:36:35 GMT 32.119331 -110.936760 0 253 0
2019-11-13 00:36:26 GMT 32.119331 -110.936768 0 253 0
2019-11-13 00:35:41 GMT 32.119331 -110.936760 0 253 0
2019-11-13 00:35:12 GMT 32.119331 -110.936768 0 253 0
2019-11-13 00:35:02 GMT 32.119331 -110.936760 0 253 0
2019-11-13 00:34:53 GMT 32.119331 -110.936768 0 253 0
2019-11-13 00:34:42 GMT 32.119331 -110.936760 0 253 0
2019-11-13 00:34:28 GMT 32.119331 -110.936768 0 253 0

Making use of Plane Finder data

You are free to use the raw flight data, aircraft information and images provided in this report for your own purposes provided the data is correctly attributed to Plane Finder. We ask that you please credit Plane Finder and link to planefinder.net in close proximity to the content.

Optionally one of the following logos (no smaller then 150x24px) can be used and must link to planefinder.net

Embedding the Plane Finder map

You are welcome to embed the Plane Finder playback map on your website to offer visitors a more interactive experience. We suggest using the following HTML code:

<iframe src="//planefinder.net/data/report/UA5240-N938SW-7700-squawk-2019-11-13/map" width="800" height="600" seamless="seamless"></iframe>

Where our data comes from

Plane Finder has a global network of data feeds and antenna radars that receive data broadcast directly from aircraft. The primary technologies used are ADS-B and MLAT. We also show feeds from the FAA and a FLARM glider feed.

Click here to find out more about the Plane Finder network.

How we collect our data